createdAt,value
2018-12-17T00:00:38.173Z,6.23
2018-12-17T00:03:10.241Z,6.50
2018-12-17T00:05:42.296Z,6.33
2018-12-17T00:08:14.620Z,6.10
2018-12-17T00:10:44.989Z,6.30
2018-12-17T00:13:14.845Z,6.43
2018-12-17T00:15:44.648Z,6.23
2018-12-17T00:18:15.596Z,6.63
2018-12-17T00:20:45.408Z,6.47
2018-12-17T00:23:15.204Z,6.40
2018-12-17T00:25:47.110Z,5.30
2018-12-17T00:28:17.532Z,5.27
2018-12-17T00:30:47.407Z,6.77
2018-12-17T00:33:18.277Z,6.90
2018-12-17T00:35:48.175Z,6.43
2018-12-17T00:38:18.124Z,6.07
2018-12-17T00:40:47.995Z,6.27
2018-12-17T00:43:17.931Z,6.20
2018-12-17T00:45:47.963Z,6.23
2018-12-17T00:48:18.279Z,6.57
2018-12-17T00:50:48.317Z,6.47
2018-12-17T00:53:18.139Z,6.70
2018-12-17T00:55:47.997Z,6.53
2018-12-17T00:58:17.847Z,6.67
2018-12-17T01:00:47.784Z,6.93
2018-12-17T01:03:17.764Z,6.60
2018-12-17T01:05:47.636Z,6.40
2018-12-17T01:08:17.580Z,6.90
2018-12-17T01:10:47.408Z,7.10
2018-12-17T01:13:17.292Z,6.30
2018-12-17T01:15:47.140Z,5.77
2018-12-17T01:18:17.203Z,6.20
2018-12-17T01:20:47.082Z,6.20
2018-12-17T01:23:17.032Z,6.63
2018-12-17T01:25:46.936Z,6.70
2018-12-17T01:28:22.154Z,6.50
2018-12-17T01:30:50.379Z,6.83
2018-12-17T01:33:20.309Z,7.27
2018-12-17T01:35:50.146Z,7.37
2018-12-17T01:38:20.124Z,7.13
2018-12-17T01:40:50.095Z,7.03
2018-12-17T01:43:19.923Z,6.90
2018-12-17T01:45:49.804Z,7.57
2018-12-17T01:48:19.813Z,6.77
2018-12-17T01:50:49.633Z,6.80
2018-12-17T01:53:19.528Z,6.80
2018-12-17T01:55:49.386Z,6.33
2018-12-17T01:58:19.300Z,6.60
2018-12-17T02:00:49.377Z,5.93
2018-12-17T02:03:19.144Z,5.90
2018-12-17T02:05:48.996Z,6.40
2018-12-17T02:08:18.808Z,6.00
2018-12-17T02:10:48.648Z,7.07
2018-12-17T02:13:18.568Z,6.50
2018-12-17T02:15:48.472Z,6.00
2018-12-17T02:18:18.268Z,6.40
2018-12-17T02:20:48.496Z,5.70
2018-12-17T02:23:18.407Z,5.27
2018-12-17T02:25:48.235Z,5.43
2018-12-17T02:28:18.266Z,5.93
2018-12-17T02:30:48.124Z,6.10
2018-12-17T02:33:18.008Z,5.40
2018-12-17T02:35:47.873Z,5.90
2018-12-17T02:38:17.629Z,6.20
2018-12-17T02:40:47.478Z,5.60
2018-12-17T02:43:17.283Z,5.53
2018-12-17T02:45:47.100Z,6.23
2018-12-17T02:48:16.916Z,5.60
2018-12-17T02:50:46.783Z,5.70
2018-12-17T02:53:16.630Z,5.87
2018-12-17T02:55:47.048Z,5.43
2018-12-17T02:58:16.925Z,5.70
2018-12-17T03:00:46.746Z,5.87
2018-12-17T03:03:16.593Z,5.40
2018-12-17T03:05:46.484Z,6.73
2018-12-17T03:08:16.369Z,6.43
2018-12-17T03:10:46.218Z,6.60
2018-12-17T03:13:16.128Z,6.87
2018-12-17T03:15:46.000Z,5.83
2018-12-17T03:18:15.939Z,6.43
2018-12-17T03:20:45.906Z,6.20
2018-12-17T03:23:15.849Z,6.13
2018-12-17T03:25:45.753Z,6.17
2018-12-17T03:28:15.549Z,6.27
2018-12-17T03:30:45.430Z,6.50
2018-12-17T03:33:15.333Z,6.27
2018-12-17T03:35:45.262Z,7.10
2018-12-17T03:38:15.085Z,6.10
2018-12-17T03:40:44.995Z,6.53
2018-12-17T03:43:14.927Z,6.33
2018-12-17T03:45:44.807Z,6.30
2018-12-17T03:48:14.700Z,6.70
2018-12-17T03:50:44.540Z,5.80
2018-12-17T03:53:14.429Z,6.47
2018-12-17T03:55:44.264Z,6.60
2018-12-17T03:58:14.153Z,6.10
2018-12-17T04:00:44.004Z,6.43
2018-12-17T04:03:13.880Z,6.60
2018-12-17T04:05:43.716Z,7.27
2018-12-17T04:08:13.628Z,6.40
2018-12-17T04:10:43.526Z,6.90
2018-12-17T04:13:13.343Z,6.43
2018-12-17T04:15:43.297Z,6.43
2018-12-17T04:18:13.168Z,7.03
2018-12-17T04:20:43.000Z,7.97
2018-12-17T04:23:12.893Z,7.23
2018-12-17T04:25:43.756Z,7.00
2018-12-17T04:28:13.644Z,7.17
2018-12-17T04:30:43.475Z,7.97
2018-12-17T04:33:13.397Z,8.43
2018-12-17T04:35:44.424Z,6.97
2018-12-17T04:38:14.225Z,7.43
2018-12-17T04:40:44.020Z,6.90
2018-12-17T04:43:13.851Z,6.33
2018-12-17T04:45:43.628Z,6.23
2018-12-17T04:48:13.576Z,5.87
2018-12-17T04:50:43.543Z,5.20
2018-12-17T04:53:13.416Z,6.37
2018-12-17T04:55:43.251Z,5.70
2018-12-17T04:58:13.137Z,6.27
2018-12-17T05:00:43.042Z,7.63
2018-12-17T05:03:12.836Z,8.00
2018-12-17T05:05:42.713Z,7.87
2018-12-17T05:08:12.594Z,7.67
2018-12-17T05:10:42.504Z,7.13
2018-12-17T05:13:12.271Z,7.97
2018-12-17T05:15:42.572Z,7.87
2018-12-17T05:18:12.443Z,8.20
2018-12-17T05:20:42.600Z,7.97
2018-12-17T05:23:12.455Z,7.77
2018-12-17T05:25:42.544Z,7.83
2018-12-17T05:28:12.408Z,7.63
2018-12-17T05:30:42.462Z,7.47
2018-12-17T05:33:13.238Z,7.70
2018-12-17T05:35:44.034Z,7.23
2018-12-17T05:38:13.860Z,7.43
2018-12-17T05:40:43.767Z,6.77
2018-12-17T05:43:13.626Z,8.20
2018-12-17T05:45:43.502Z,7.80
2018-12-17T05:48:13.387Z,7.43
2018-12-17T05:50:43.352Z,7.63
2018-12-17T05:53:13.843Z,7.73
2018-12-17T05:55:44.341Z,7.77
2018-12-17T05:58:14.376Z,8.90
2018-12-17T06:00:44.246Z,9.20
2018-12-17T06:03:14.103Z,7.20
2018-12-17T06:05:43.952Z,12.10
2018-12-17T06:08:14.039Z,7.53
2018-12-17T06:10:43.880Z,6.77
2018-12-17T06:13:13.765Z,7.73
2018-12-17T06:15:46.841Z,6.87
2018-12-17T06:18:16.612Z,7.20
2018-12-17T06:20:47.240Z,7.50
2018-12-17T06:23:17.128Z,7.37
2018-12-17T06:25:46.944Z,6.40
2018-12-17T06:28:16.833Z,6.23
2018-12-17T06:30:46.668Z,6.40
2018-12-17T06:33:16.692Z,6.20
2018-12-17T06:35:46.636Z,6.50
2018-12-17T06:38:16.510Z,5.97
2018-12-17T06:40:46.333Z,5.87
2018-12-17T06:43:16.161Z,6.30
2018-12-17T06:45:46.124Z,5.93
2018-12-17T06:48:17.288Z,6.40
2018-12-17T06:50:47.548Z,7.87
2018-12-17T06:53:17.392Z,7.40
2018-12-17T06:55:48.157Z,6.90
2018-12-17T06:58:18.252Z,7.73
2018-12-17T07:00:48.060Z,7.60
2018-12-17T07:03:17.929Z,7.13
2018-12-17T07:05:47.828Z,7.47
2018-12-17T07:08:19.037Z,8.07
2018-12-17T07:10:49.024Z,7.63
2018-12-17T07:13:18.944Z,13.63
2018-12-17T07:15:48.800Z,10.97
2018-12-17T07:18:18.628Z,9.90
2018-12-17T07:20:48.484Z,9.57
2018-12-17T07:23:18.787Z,8.33
2018-12-17T07:25:48.603Z,7.57
2018-12-17T07:28:19.131Z,7.20
2018-12-17T07:30:48.903Z,7.33
2018-12-17T07:33:18.713Z,7.33
2018-12-17T07:35:48.492Z,7.87
2018-12-17T07:38:18.385Z,7.07
2018-12-17T07:40:48.324Z,7.10
2018-12-17T07:43:18.228Z,6.73
2018-12-17T07:45:48.109Z,5.97
2018-12-17T07:48:17.947Z,6.00
2018-12-17T07:50:48.457Z,6.30
2018-12-17T07:53:18.269Z,6.13
2018-12-17T07:55:48.286Z,6.90
2018-12-17T07:58:18.131Z,6.57
2018-12-17T08:00:49.332Z,6.20
2018-12-17T08:03:19.268Z,5.90
2018-12-17T08:05:49.006Z,6.07
2018-12-17T08:08:18.983Z,6.63
2018-12-17T08:10:48.891Z,6.67
2018-12-17T08:13:18.700Z,7.23
2018-12-17T08:15:48.517Z,7.17
2018-12-17T08:18:24.832Z,7.17
2018-12-17T08:20:54.880Z,6.40
2018-12-17T08:23:24.692Z,6.40
2018-12-17T08:25:54.536Z,6.20
2018-12-17T08:28:24.450Z,8.40
2018-12-17T08:30:54.195Z,8.23
2018-12-17T08:33:24.119Z,7.93
2018-12-17T08:35:53.986Z,7.27
2018-12-17T08:38:24.959Z,7.47
2018-12-17T08:40:54.796Z,6.93
2018-12-17T08:43:24.678Z,7.37
2018-12-17T08:45:54.570Z,7.13
2018-12-17T08:48:25.580Z,6.77
2018-12-17T08:50:55.384Z,6.60
2018-12-17T08:53:25.421Z,7.10
2018-12-17T08:55:55.380Z,7.03
2018-12-17T08:58:25.496Z,7.40
2018-12-17T09:00:55.295Z,7.43
2018-12-17T09:03:25.069Z,6.63
2018-12-17T09:05:54.948Z,5.73
2018-12-17T09:08:24.863Z,7.53
2018-12-17T09:10:54.740Z,5.97
2018-12-17T09:13:24.548Z,6.40
2018-12-17T09:15:54.492Z,6.43
2018-12-17T09:18:24.332Z,6.40
2018-12-17T09:20:54.240Z,6.03
2018-12-17T09:23:24.113Z,6.33
2018-12-17T09:25:53.972Z,5.33
2018-12-17T09:28:23.720Z,5.30
2018-12-17T09:30:53.588Z,5.37
2018-12-17T09:33:23.465Z,5.50
2018-12-17T09:35:53.309Z,5.70
2018-12-17T09:38:23.301Z,5.50
2018-12-17T09:40:53.083Z,5.60
2018-12-17T09:43:22.880Z,5.50
2018-12-17T09:45:52.731Z,5.30
2018-12-17T09:48:22.549Z,6.13
2018-12-17T09:50:52.335Z,6.10
2018-12-17T09:53:22.235Z,5.80
2018-12-17T09:55:52.077Z,6.90
2018-12-17T09:58:21.949Z,6.83
2018-12-17T10:00:51.841Z,6.80
2018-12-17T10:03:21.768Z,6.23
2018-12-17T10:05:51.675Z,7.50
2018-12-17T10:08:21.534Z,6.00
2018-12-17T10:10:51.328Z,6.27
2018-12-17T10:13:21.190Z,6.23
2018-12-17T10:15:51.337Z,6.53
2018-12-17T10:18:21.184Z,6.10
2018-12-17T10:20:51.057Z,6.00
2018-12-17T10:23:21.162Z,6.90
2018-12-17T10:25:50.999Z,7.73
2018-12-17T10:28:20.885Z,7.23
2018-12-17T10:30:50.745Z,7.20
2018-12-17T10:33:21.672Z,6.73
2018-12-17T10:35:51.484Z,6.60
2018-12-17T10:38:21.372Z,6.13
2018-12-17T10:40:51.203Z,5.90
2018-12-17T10:43:21.059Z,6.17
2018-12-17T10:45:50.977Z,5.20
2018-12-17T10:48:21.896Z,5.67
2018-12-17T10:50:51.797Z,6.03
2018-12-17T10:53:21.624Z,5.90
2018-12-17T10:55:52.674Z,5.93
2018-12-17T10:58:22.612Z,6.00
2018-12-17T11:00:57.692Z,5.27
2018-12-17T11:03:33.872Z,6.13
2018-12-17T11:06:08.624Z,5.40
2018-12-17T11:08:38.708Z,5.60
2018-12-17T11:11:08.657Z,6.33
2018-12-17T11:13:38.508Z,5.43
2018-12-17T11:16:08.363Z,5.67
2018-12-17T11:18:39.705Z,5.60
2018-12-17T11:21:09.608Z,5.80
2018-12-17T11:23:41.577Z,6.10
2018-12-17T11:26:11.655Z,5.70
2018-12-17T11:28:41.513Z,5.60
2018-12-17T11:31:11.395Z,5.13
2018-12-17T11:33:41.340Z,5.20
2018-12-17T11:36:11.257Z,5.77
2018-12-17T11:38:41.484Z,5.00
2018-12-17T11:41:11.392Z,4.80
2018-12-17T11:43:43.922Z,4.40
2018-12-17T11:46:13.071Z,3.87
2018-12-17T11:48:43.089Z,3.77
2018-12-17T11:51:13.008Z,3.77
2018-12-17T11:53:42.860Z,3.87
2018-12-17T11:56:13.340Z,4.67
2018-12-17T11:58:44.135Z,3.90
2018-12-17T12:01:15.935Z,4.00
2018-12-17T12:03:46.271Z,3.77
2018-12-17T12:06:16.249Z,3.83
2018-12-17T12:08:46.027Z,4.00
2018-12-17T12:11:15.888Z,4.70
2018-12-17T12:13:45.968Z,4.67
2018-12-17T12:16:15.955Z,5.30
2018-12-17T12:18:45.833Z,4.63
2018-12-17T12:21:15.791Z,4.43
2018-12-17T12:23:45.616Z,4.23
2018-12-17T12:26:15.491Z,5.00
2018-12-17T12:28:45.299Z,4.83
2018-12-17T12:31:15.160Z,5.00
2018-12-17T12:33:45.391Z,5.50
2018-12-17T12:36:15.996Z,4.97
2018-12-17T12:38:46.181Z,4.30
2018-12-17T12:41:16.097Z,5.30
2018-12-17T12:43:45.980Z,4.70
2018-12-17T12:46:15.825Z,5.23
2018-12-17T12:48:45.755Z,4.70
2018-12-17T12:51:15.624Z,4.57
2018-12-17T12:53:46.691Z,4.80
2018-12-17T12:56:16.597Z,4.77
2018-12-17T12:58:46.418Z,4.13
2018-12-17T13:01:16.332Z,4.10
2018-12-17T13:03:46.216Z,4.20
2018-12-17T13:06:16.716Z,3.80
2018-12-17T13:08:46.578Z,3.83
2018-12-17T13:11:16.356Z,4.53
2018-12-17T13:13:46.309Z,3.67
2018-12-17T13:16:16.107Z,4.00
2018-12-17T13:18:45.881Z,3.30
2018-12-17T13:21:15.720Z,3.80
2018-12-17T13:23:45.561Z,4.03
2018-12-17T13:26:15.616Z,2.90
2018-12-17T13:28:45.484Z,2.73
2018-12-17T13:31:15.417Z,3.60
2018-12-17T13:33:45.327Z,2.10
2018-12-17T13:36:15.281Z,1.87
2018-12-17T13:38:45.143Z,2.77
2018-12-17T13:41:15.045Z,1.80
2018-12-17T13:43:44.875Z,2.53
2018-12-17T13:46:14.700Z,1.60
2018-12-17T13:48:44.688Z,1.77
2018-12-17T13:51:19.825Z,1.80
2018-12-17T13:53:49.790Z,2.23
2018-12-17T13:56:19.681Z,2.10
2018-12-17T13:58:49.594Z,2.13
2018-12-17T14:01:21.970Z,2.33
2018-12-17T14:03:51.500Z,1.83
2018-12-17T14:06:21.345Z,2.07
2018-12-17T14:08:51.411Z,1.83
2018-12-17T14:11:21.744Z,1.97
2018-12-17T14:13:51.771Z,1.70
2018-12-17T14:16:25.765Z,1.33
2018-12-17T14:19:31.318Z,1.73
2018-12-17T14:22:03.173Z,1.63
2018-12-17T14:24:32.928Z,2.10
2018-12-17T14:27:02.821Z,1.60
2018-12-17T14:29:32.721Z,1.70
2018-12-17T14:32:02.664Z,1.83
2018-12-17T14:34:32.548Z,1.63
2018-12-17T14:37:02.739Z,1.63
2018-12-17T14:39:32.532Z,2.03
2018-12-17T14:42:02.745Z,2.07
2018-12-17T14:44:34.946Z,2.00
2018-12-17T14:47:05.312Z,1.70
2018-12-17T14:49:35.076Z,1.80
2018-12-17T14:52:04.925Z,1.50
2018-12-17T14:54:34.876Z,1.90
2018-12-17T14:57:04.856Z,1.67
2018-12-17T14:59:34.701Z,1.77
2018-12-17T15:02:05.524Z,1.97
2018-12-17T15:04:35.445Z,2.37
2018-12-17T15:07:05.329Z,2.40
2018-12-17T15:09:35.119Z,1.77
2018-12-17T15:12:05.132Z,2.00
2018-12-17T15:14:34.989Z,2.80
2018-12-17T15:17:04.886Z,1.93
2018-12-17T15:19:34.700Z,1.90
2018-12-17T15:22:04.515Z,1.53
2018-12-17T15:24:40.257Z,2.03
2018-12-17T15:27:06.247Z,2.17
2018-12-17T15:29:36.224Z,1.70
2018-12-17T15:32:06.126Z,2.33
2018-12-17T15:34:36.015Z,2.10
2018-12-17T15:37:05.954Z,2.20
2018-12-17T15:39:35.736Z,2.60
2018-12-17T15:42:05.647Z,2.87
2018-12-17T15:44:35.506Z,2.60
2018-12-17T15:47:05.405Z,2.80
2018-12-17T15:49:36.405Z,2.33
2018-12-17T15:52:06.279Z,2.40
2018-12-17T15:54:36.084Z,3.63
2018-12-17T15:57:07.098Z,4.40
2018-12-17T15:59:37.260Z,4.83
2018-12-17T16:02:07.184Z,3.40
2018-12-17T16:04:37.640Z,3.63
2018-12-17T16:07:07.555Z,4.10
2018-12-17T16:09:37.444Z,4.03
2018-12-17T16:12:07.280Z,2.70
2018-12-17T16:14:37.172Z,2.43
2018-12-17T16:17:07.160Z,2.80
2018-12-17T16:19:37.095Z,2.50
2018-12-17T16:22:06.939Z,2.10
2018-12-17T16:24:36.824Z,2.40
2018-12-17T16:27:06.940Z,2.47
2018-12-17T16:29:36.818Z,2.33
2018-12-17T16:32:06.633Z,2.77
2018-12-17T16:34:36.588Z,2.30
2018-12-17T16:37:07.453Z,2.53
2018-12-17T16:39:37.319Z,2.30
2018-12-17T16:42:07.167Z,2.40
2018-12-17T16:44:37.084Z,2.07
2018-12-17T16:47:07.265Z,3.93
2018-12-17T16:49:37.137Z,3.90
2018-12-17T16:52:07.251Z,2.80
2018-12-17T16:54:37.105Z,3.50
2018-12-17T16:57:06.925Z,4.10
2018-12-17T16:59:36.751Z,3.00
2018-12-17T17:02:06.661Z,2.50
2018-12-17T17:04:36.551Z,2.80
2018-12-17T17:07:06.435Z,3.40
2018-12-17T17:09:36.325Z,4.57
2018-12-17T17:12:06.250Z,3.90
2018-12-17T17:14:36.680Z,3.17
2018-12-17T17:17:06.780Z,3.10
2018-12-17T17:19:36.658Z,3.67
2018-12-17T17:22:06.452Z,3.60
2018-12-17T17:24:36.252Z,3.67
2018-12-17T17:27:06.058Z,3.77
2018-12-17T17:29:36.122Z,4.07
2018-12-17T17:32:11.617Z,3.53
2018-12-17T17:34:37.854Z,3.20
2018-12-17T17:37:07.896Z,3.20
2018-12-17T17:39:37.681Z,3.43
2018-12-17T17:42:08.296Z,3.70
2018-12-17T17:44:38.172Z,4.13
2018-12-17T17:47:08.278Z,3.73
2018-12-17T17:49:38.151Z,3.43
2018-12-17T17:52:08.281Z,3.67
2018-12-17T17:54:39.084Z,3.63
2018-12-17T17:57:09.055Z,3.67
2018-12-17T17:59:38.971Z,3.87
2018-12-17T18:02:08.943Z,3.57
2018-12-17T18:04:38.945Z,4.70
2018-12-17T18:07:09.389Z,3.90
2018-12-17T18:09:39.332Z,5.20
2018-12-17T18:12:09.389Z,3.70
2018-12-17T18:14:39.245Z,3.87
2018-12-17T18:17:09.656Z,3.83
2018-12-17T18:19:39.584Z,4.00
2018-12-17T18:22:09.637Z,3.83
2018-12-17T18:24:39.481Z,4.30
2018-12-17T18:27:09.394Z,3.67
2018-12-17T18:29:39.180Z,4.00
2018-12-17T18:32:09.655Z,4.47
2018-12-17T18:34:40.175Z,5.10
2018-12-17T18:37:10.135Z,4.20
2018-12-17T18:39:40.747Z,4.60
2018-12-17T18:42:10.588Z,4.77
2018-12-17T18:44:41.143Z,4.10
2018-12-17T18:47:11.672Z,3.83
2018-12-17T18:49:41.581Z,4.17
2018-12-17T18:52:11.389Z,3.50
2018-12-17T18:54:41.428Z,4.00
2018-12-17T18:57:11.259Z,4.03
2018-12-17T18:59:41.457Z,5.87
2018-12-17T19:02:11.348Z,4.40
2018-12-17T19:04:41.997Z,4.10
2018-12-17T19:07:11.788Z,3.80
2018-12-17T19:09:42.666Z,3.63
2018-12-17T19:12:12.585Z,3.47
2018-12-17T19:14:42.519Z,3.97
2018-12-17T19:17:12.480Z,5.17
2018-12-17T19:19:42.348Z,5.27
2018-12-17T19:22:12.212Z,5.07
2018-12-17T19:24:42.066Z,4.93
2018-12-17T19:27:12.614Z,5.10
2018-12-17T19:29:42.497Z,5.77
2018-12-17T19:32:12.340Z,5.93
2018-12-17T19:34:42.632Z,4.07
2018-12-17T19:37:12.597Z,3.87
2018-12-17T19:39:42.504Z,3.60
2018-12-17T19:42:14.663Z,5.60
2018-12-17T19:44:44.589Z,3.37
2018-12-17T19:47:14.518Z,3.30
2018-12-17T19:49:44.853Z,2.90
2018-12-17T19:52:14.750Z,2.80
2018-12-17T19:54:44.620Z,2.70
2018-12-17T19:57:14.421Z,2.77
2018-12-17T19:59:44.328Z,2.63
2018-12-17T20:02:14.369Z,2.73
2018-12-17T20:04:44.211Z,2.63
2018-12-17T20:07:14.097Z,3.40
2018-12-17T20:09:43.929Z,2.80
2018-12-17T20:12:13.874Z,2.03
2018-12-17T20:14:44.204Z,3.63
2018-12-17T20:17:15.055Z,5.40
2018-12-17T20:19:44.896Z,4.50
2018-12-17T20:22:15.351Z,3.97
2018-12-17T20:24:46.367Z,3.83
2018-12-17T20:27:16.212Z,3.63
2018-12-17T20:29:50.338Z,4.77
2018-12-17T20:32:17.988Z,4.73
2018-12-17T20:34:48.701Z,6.23
2018-12-17T20:37:18.612Z,4.47
2018-12-17T20:39:48.540Z,5.17
2018-12-17T20:42:18.740Z,4.27
2018-12-17T20:44:48.545Z,4.10
2018-12-17T20:47:18.538Z,6.27
2018-12-17T20:49:48.917Z,9.03
2018-12-17T20:52:18.858Z,6.30
2018-12-17T20:54:48.756Z,4.47
2018-12-17T20:57:18.734Z,4.07
2018-12-17T20:59:48.567Z,4.60
2018-12-17T21:02:18.540Z,3.80
2018-12-17T21:04:48.617Z,4.20
2018-12-17T21:07:18.444Z,4.77
2018-12-17T21:09:48.543Z,10.47
2018-12-17T21:12:18.840Z,5.93
2018-12-17T21:14:48.680Z,4.70
2018-12-17T21:17:19.180Z,5.00
2018-12-17T21:19:49.081Z,4.93
2018-12-17T21:22:18.939Z,4.80
2018-12-17T21:24:49.012Z,5.50
2018-12-17T21:27:18.989Z,5.80
2018-12-17T21:29:48.834Z,6.13
2018-12-17T21:32:18.852Z,5.63
2018-12-17T21:34:48.712Z,5.80
2018-12-17T21:37:18.557Z,5.20
2018-12-17T21:39:48.489Z,7.53
2018-12-17T21:42:18.397Z,7.10
2018-12-17T21:44:48.282Z,6.03
2018-12-17T21:47:18.564Z,6.77
2018-12-17T21:49:48.413Z,7.27
2018-12-17T21:52:18.312Z,6.63
2018-12-17T21:54:48.479Z,6.70
2018-12-17T21:57:18.405Z,7.03
2018-12-17T21:59:48.884Z,5.93
2018-12-17T22:02:18.753Z,5.70
2018-12-17T22:04:48.633Z,6.43
2018-12-17T22:07:18.621Z,5.60
2018-12-17T22:09:48.462Z,5.47
2018-12-17T22:12:18.397Z,6.10
2018-12-17T22:14:48.282Z,5.33
2018-12-17T22:17:19.165Z,5.10
2018-12-17T22:19:48.975Z,5.57
2018-12-17T22:22:18.854Z,6.20
2018-12-17T22:24:48.744Z,5.53
2018-12-17T22:27:18.517Z,5.83
2018-12-17T22:29:49.052Z,6.17
2018-12-17T22:32:18.880Z,6.80
2018-12-17T22:34:49.232Z,8.13
2018-12-17T22:37:19.645Z,7.40
2018-12-17T22:39:49.542Z,8.43
2018-12-17T22:42:19.415Z,8.73
2018-12-17T22:44:49.340Z,9.13
2018-12-17T22:47:19.280Z,12.30
2018-12-17T22:49:49.128Z,9.37
2018-12-17T22:52:18.956Z,8.63
2018-12-17T22:54:48.868Z,9.37
2018-12-17T22:57:19.740Z,8.30
2018-12-17T22:59:49.626Z,7.23
2018-12-17T23:02:19.565Z,6.97
2018-12-17T23:04:49.436Z,8.03
2018-12-17T23:07:19.228Z,7.57
2018-12-17T23:10:00.272Z,8.23
2018-12-17T23:12:41.452Z,7.43
2018-12-17T23:15:22.640Z,7.57
2018-12-17T23:17:52.131Z,7.97
2018-12-17T23:20:24.079Z,7.43
2018-12-17T23:22:56.364Z,7.73
2018-12-17T23:25:26.252Z,6.53
2018-12-17T23:27:56.304Z,7.43
2018-12-17T23:30:26.176Z,7.70
2018-12-17T23:32:59.132Z,7.70
2018-12-17T23:35:29.002Z,8.27
2018-12-17T23:37:58.879Z,7.87
2018-12-17T23:40:28.695Z,6.97
2018-12-17T23:42:58.763Z,7.17
2018-12-17T23:45:29.268Z,7.47
2018-12-17T23:47:59.280Z,7.93
2018-12-17T23:50:29.188Z,7.90
2018-12-17T23:53:00.048Z,7.40
2018-12-17T23:55:30.145Z,7.40
2018-12-17T23:57:59.987Z,7.87
